sensor_id;sensor_type;location;lat;lon;timestamp;temperature;humidity
33943;DHT22;66763;47.856;17.462;2023-04-19T00:02:06;22.00;47.30
33943;DHT22;66763;47.856;17.462;2023-04-19T00:04:33;22.00;47.30
33943;DHT22;66763;47.856;17.462;2023-04-19T00:06:58;22.00;47.30
33943;DHT22;66763;47.856;17.462;2023-04-19T00:09:24;22.00;47.30
33943;DHT22;66763;47.856;17.462;2023-04-19T00:11:50;22.00;47.40
33943;DHT22;66763;47.856;17.462;2023-04-19T00:14:16;22.00;47.30
33943;DHT22;66763;47.856;17.462;2023-04-19T00:16:41;22.00;47.40
33943;DHT22;66763;47.856;17.462;2023-04-19T00:19:07;21.90;47.30
33943;DHT22;66763;47.856;17.462;2023-04-19T00:21:32;21.90;47.40
33943;DHT22;66763;47.856;17.462;2023-04-19T00:23:58;21.90;47.40
33943;DHT22;66763;47.856;17.462;2023-04-19T00:26:23;21.90;47.30
33943;DHT22;66763;47.856;17.462;2023-04-19T00:28:49;21.90;47.30
33943;DHT22;66763;47.856;17.462;2023-04-19T00:31:14;21.90;47.40
33943;DHT22;66763;47.856;17.462;2023-04-19T00:33:40;21.80;47.30
33943;DHT22;66763;47.856;17.462;2023-04-19T00:36:05;21.90;47.30
33943;DHT22;66763;47.856;17.462;2023-04-19T00:38:31;21.90;47.30
33943;DHT22;66763;47.856;17.462;2023-04-19T00:40:57;21.80;47.30
33943;DHT22;66763;47.856;17.462;2023-04-19T00:43:22;21.80;47.30
33943;DHT22;66763;47.856;17.462;2023-04-19T00:45:48;21.80;47.30
33943;DHT22;66763;47.856;17.462;2023-04-19T00:48:14;21.80;47.30
33943;DHT22;66763;47.856;17.462;2023-04-19T00:50:40;21.80;47.20
33943;DHT22;66763;47.856;17.462;2023-04-19T00:53:06;21.80;47.30
33943;DHT22;66763;47.856;17.462;2023-04-19T00:55:32;21.80;47.30
33943;DHT22;66763;47.856;17.462;2023-04-19T00:57:57;21.80;47.30
33943;DHT22;66763;47.856;17.462;2023-04-19T01:00:23;21.80;47.40
33943;DHT22;66763;47.856;17.462;2023-04-19T01:02:49;21.80;47.30
33943;DHT22;66763;47.856;17.462;2023-04-19T01:05:14;21.70;47.30
33943;DHT22;66763;47.856;17.462;2023-04-19T01:07:41;21.70;47.30
33943;DHT22;66763;47.856;17.462;2023-04-19T01:10:07;21.70;47.30
33943;DHT22;66763;47.856;17.462;2023-04-19T01:12:32;21.70;47.30
33943;DHT22;66763;47.856;17.462;2023-04-19T01:14:58;21.70;47.40
33943;DHT22;66763;47.856;17.462;2023-04-19T01:17:23;21.70;47.30
33943;DHT22;66763;47.856;17.462;2023-04-19T01:19:57;21.60;47.30
33943;DHT22;66763;47.856;17.462;2023-04-19T01:22:22;21.60;47.30
33943;DHT22;66763;47.856;17.462;2023-04-19T01:24:48;21.60;47.30
33943;DHT22;66763;47.856;17.462;2023-04-19T01:27:13;21.60;47.30
33943;DHT22;66763;47.856;17.462;2023-04-19T01:29:40;21.60;47.30
33943;DHT22;66763;47.856;17.462;2023-04-19T01:32:06;21.60;47.30
33943;DHT22;66763;47.856;17.462;2023-04-19T01:34:32;21.60;47.30
33943;DHT22;66763;47.856;17.462;2023-04-19T01:36:57;21.60;47.30
33943;DHT22;66763;47.856;17.462;2023-04-19T01:39:24;21.60;47.20
33943;DHT22;66763;47.856;17.462;2023-04-19T01:41:50;21.60;47.30
33943;DHT22;66763;47.856;17.462;2023-04-19T01:44:15;21.60;47.20
33943;DHT22;66763;47.856;17.462;2023-04-19T01:46:41;21.60;47.20
33943;DHT22;66763;47.856;17.462;2023-04-19T01:49:07;21.60;47.30
33943;DHT22;66763;47.856;17.462;2023-04-19T01:51:32;21.60;47.20
33943;DHT22;66763;47.856;17.462;2023-04-19T01:53:58;21.60;47.30
33943;DHT22;66763;47.856;17.462;2023-04-19T01:56:23;21.60;47.30
33943;DHT22;66763;47.856;17.462;2023-04-19T01:58:50;21.60;47.30
33943;DHT22;66763;47.856;17.462;2023-04-19T02:01:15;21.50;47.30
33943;DHT22;66763;47.856;17.462;2023-04-19T02:03:41;21.50;47.20
33943;DHT22;66763;47.856;17.462;2023-04-19T02:06:10;21.50;47.20
33943;DHT22;66763;47.856;17.462;2023-04-19T02:08:37;21.50;47.10
33943;DHT22;66763;47.856;17.462;2023-04-19T02:11:06;21.60;47.20
33943;DHT22;66763;47.856;17.462;2023-04-19T02:13:32;21.60;47.80
33943;DHT22;66763;47.856;17.462;2023-04-19T02:15:58;21.70;47.30
33943;DHT22;66763;47.856;17.462;2023-04-19T02:18:25;21.70;47.30
33943;DHT22;66763;47.856;17.462;2023-04-19T02:20:51;21.80;47.30
33943;DHT22;66763;47.856;17.462;2023-04-19T02:23:16;21.90;47.30
33943;DHT22;66763;47.856;17.462;2023-04-19T02:25:42;22.00;47.30
33943;DHT22;66763;47.856;17.462;2023-04-19T02:28:07;22.00;47.30
33943;DHT22;66763;47.856;17.462;2023-04-19T02:30:33;22.00;47.30
33943;DHT22;66763;47.856;17.462;2023-04-19T02:32:58;22.10;47.30
33943;DHT22;66763;47.856;17.462;2023-04-19T02:35:24;22.10;47.30
33943;DHT22;66763;47.856;17.462;2023-04-19T02:37:49;22.20;47.30
33943;DHT22;66763;47.856;17.462;2023-04-19T02:40:15;22.20;47.20
33943;DHT22;66763;47.856;17.462;2023-04-19T02:42:40;22.20;47.20
33943;DHT22;66763;47.856;17.462;2023-04-19T02:45:06;22.30;47.20
33943;DHT22;66763;47.856;17.462;2023-04-19T02:47:31;22.30;47.30
33943;DHT22;66763;47.856;17.462;2023-04-19T02:49:58;22.40;47.30
33943;DHT22;66763;47.856;17.462;2023-04-19T02:52:24;22.40;47.20
33943;DHT22;66763;47.856;17.462;2023-04-19T02:54:50;22.40;47.20
33943;DHT22;66763;47.856;17.462;2023-04-19T02:57:15;22.40;47.20
33943;DHT22;66763;47.856;17.462;2023-04-19T02:59:41;22.50;47.20
33943;DHT22;66763;47.856;17.462;2023-04-19T03:02:06;22.50;47.20
33943;DHT22;66763;47.856;17.462;2023-04-19T03:04:32;22.50;47.10
33943;DHT22;66763;47.856;17.462;2023-04-19T03:06:58;22.50;47.10
33943;DHT22;66763;47.856;17.462;2023-04-19T03:09:24;22.60;47.10
33943;DHT22;66763;47.856;17.462;2023-04-19T03:11:49;22.50;47.00
33943;DHT22;66763;47.856;17.462;2023-04-19T03:14:15;22.60;47.10
33943;DHT22;66763;47.856;17.462;2023-04-19T03:16:40;22.50;47.00
33943;DHT22;66763;47.856;17.462;2023-04-19T03:19:06;22.60;47.00
33943;DHT22;66763;47.856;17.462;2023-04-19T03:21:32;22.60;47.00
33943;DHT22;66763;47.856;17.462;2023-04-19T03:23:57;22.50;47.00
33943;DHT22;66763;47.856;17.462;2023-04-19T03:26:22;22.50;47.00
33943;DHT22;66763;47.856;17.462;2023-04-19T03:28:48;22.50;47.00
33943;DHT22;66763;47.856;17.462;2023-04-19T03:31:13;22.50;47.00
33943;DHT22;66763;47.856;17.462;2023-04-19T03:33:39;22.50;47.00
33943;DHT22;66763;47.856;17.462;2023-04-19T03:36:04;22.50;47.10
33943;DHT22;66763;47.856;17.462;2023-04-19T03:38:31;22.40;47.00
33943;DHT22;66763;47.856;17.462;2023-04-19T03:40:56;22.40;47.00
33943;DHT22;66763;47.856;17.462;2023-04-19T03:43:22;22.40;47.00
33943;DHT22;66763;47.856;17.462;2023-04-19T03:45:48;22.40;47.10
33943;DHT22;66763;47.856;17.462;2023-04-19T03:48:14;22.40;47.10
33943;DHT22;66763;47.856;17.462;2023-04-19T03:50:39;22.40;47.20
33943;DHT22;66763;47.856;17.462;2023-04-19T03:53:05;22.40;47.10
33943;DHT22;66763;47.856;17.462;2023-04-19T03:55:30;22.40;47.20
33943;DHT22;66763;47.856;17.462;2023-04-19T03:57:56;22.30;47.20
33943;DHT22;66763;47.856;17.462;2023-04-19T04:00:21;22.30;47.20
33943;DHT22;66763;47.856;17.462;2023-04-19T04:02:47;22.30;47.30
33943;DHT22;66763;47.856;17.462;2023-04-19T04:05:13;22.30;47.30
33943;DHT22;66763;47.856;17.462;2023-04-19T04:07:39;22.20;47.30
33943;DHT22;66763;47.856;17.462;2023-04-19T04:10:05;22.20;47.20
33943;DHT22;66763;47.856;17.462;2023-04-19T04:12:30;22.20;47.30
33943;DHT22;66763;47.856;17.462;2023-04-19T04:14:56;22.20;47.30
33943;DHT22;66763;47.856;17.462;2023-04-19T04:17:21;22.20;47.30
33943;DHT22;66763;47.856;17.462;2023-04-19T04:19:48;22.20;47.30
33943;DHT22;66763;47.856;17.462;2023-04-19T04:22:15;22.20;47.30
33943;DHT22;66763;47.856;17.462;2023-04-19T04:24:40;22.20;47.30
33943;DHT22;66763;47.856;17.462;2023-04-19T04:27:07;22.20;47.30
33943;DHT22;66763;47.856;17.462;2023-04-19T04:29:34;22.20;47.40
33943;DHT22;66763;47.856;17.462;2023-04-19T04:32:01;22.10;47.20
33943;DHT22;66763;47.856;17.462;2023-04-19T04:34:27;22.10;47.20
33943;DHT22;66763;47.856;17.462;2023-04-19T04:36:52;22.10;47.20
33943;DHT22;66763;47.856;17.462;2023-04-19T04:39:18;22.10;47.20
33943;DHT22;66763;47.856;17.462;2023-04-19T04:41:43;22.10;47.20
33943;DHT22;66763;47.856;17.462;2023-04-19T04:44:10;22.10;47.20
33943;DHT22;66763;47.856;17.462;2023-04-19T04:46:36;22.10;47.20
33943;DHT22;66763;47.856;17.462;2023-04-19T04:49:02;22.10;47.20
33943;DHT22;66763;47.856;17.462;2023-04-19T04:51:27;22.00;47.10
33943;DHT22;66763;47.856;17.462;2023-04-19T04:53:53;22.10;47.20
33943;DHT22;66763;47.856;17.462;2023-04-19T04:56:18;22.00;47.20
33943;DHT22;66763;47.856;17.462;2023-04-19T04:58:44;22.00;47.10
33943;DHT22;66763;47.856;17.462;2023-04-19T05:01:09;22.00;47.20
33943;DHT22;66763;47.856;17.462;2023-04-19T05:03:35;22.00;47.20
33943;DHT22;66763;47.856;17.462;2023-04-19T05:06:00;22.00;47.20
33943;DHT22;66763;47.856;17.462;2023-04-19T05:08:26;22.00;47.20
33943;DHT22;66763;47.856;17.462;2023-04-19T05:10:51;21.90;47.20
33943;DHT22;66763;47.856;17.462;2023-04-19T05:13:17;21.90;47.20
33943;DHT22;66763;47.856;17.462;2023-04-19T05:15:42;21.90;47.20
33943;DHT22;66763;47.856;17.462;2023-04-19T05:18:08;21.90;47.30
33943;DHT22;66763;47.856;17.462;2023-04-19T05:20:33;21.90;47.20
33943;DHT22;66763;47.856;17.462;2023-04-19T05:22:59;21.90;47.20
33943;DHT22;66763;47.856;17.462;2023-04-19T05:25:25;21.90;47.20
33943;DHT22;66763;47.856;17.462;2023-04-19T05:27:51;21.90;47.20
33943;DHT22;66763;47.856;17.462;2023-04-19T05:30:17;21.90;47.20
33943;DHT22;66763;47.856;17.462;2023-04-19T05:32:42;21.90;47.30
33943;DHT22;66763;47.856;17.462;2023-04-19T05:35:08;21.80;47.20
33943;DHT22;66763;47.856;17.462;2023-04-19T05:37:33;21.80;47.20
33943;DHT22;66763;47.856;17.462;2023-04-19T05:40:01;21.80;47.20
33943;DHT22;66763;47.856;17.462;2023-04-19T05:42:29;21.80;47.20
33943;DHT22;66763;47.856;17.462;2023-04-19T05:44:55;21.80;47.20
33943;DHT22;66763;47.856;17.462;2023-04-19T05:47:21;21.80;47.20
33943;DHT22;66763;47.856;17.462;2023-04-19T05:49:46;21.80;47.20
33943;DHT22;66763;47.856;17.462;2023-04-19T05:52:11;21.80;47.20
33943;DHT22;66763;47.856;17.462;2023-04-19T05:54:37;21.80;47.20
33943;DHT22;66763;47.856;17.462;2023-04-19T05:57:03;21.80;47.20
33943;DHT22;66763;47.856;17.462;2023-04-19T05:59:28;21.80;47.20
33943;DHT22;66763;47.856;17.462;2023-04-19T06:01:54;21.70;47.20
33943;DHT22;66763;47.856;17.462;2023-04-19T06:04:20;21.70;47.20
33943;DHT22;66763;47.856;17.462;2023-04-19T06:06:46;21.70;47.20
33943;DHT22;66763;47.856;17.462;2023-04-19T06:09:11;21.70;47.50
33943;DHT22;66763;47.856;17.462;2023-04-19T06:11:37;21.70;47.40
33943;DHT22;66763;47.856;17.462;2023-04-19T06:14:03;21.70;47.50
33943;DHT22;66763;47.856;17.462;2023-04-19T06:16:29;21.70;47.60
33943;DHT22;66763;47.856;17.462;2023-04-19T06:18:55;21.70;47.60
33943;DHT22;66763;47.856;17.462;2023-04-19T06:21:21;21.80;47.90
33943;DHT22;66763;47.856;17.462;2023-04-19T06:23:46;21.90;47.90
33943;DHT22;66763;47.856;17.462;2023-04-19T06:26:12;22.00;47.90
33943;DHT22;66763;47.856;17.462;2023-04-19T06:28:37;22.00;47.90
33943;DHT22;66763;47.856;17.462;2023-04-19T06:31:03;22.10;47.90
33943;DHT22;66763;47.856;17.462;2023-04-19T06:33:28;22.20;48.20
33943;DHT22;66763;47.856;17.462;2023-04-19T06:35:54;22.20;48.20
33943;DHT22;66763;47.856;17.462;2023-04-19T06:38:19;22.20;48.20
33943;DHT22;66763;47.856;17.462;2023-04-19T06:40:45;22.30;48.80
33943;DHT22;66763;47.856;17.462;2023-04-19T06:43:10;22.30;48.20
33943;DHT22;66763;47.856;17.462;2023-04-19T06:45:36;22.40;48.20
33943;DHT22;66763;47.856;17.462;2023-04-19T06:48:01;22.40;48.10
33943;DHT22;66763;47.856;17.462;2023-04-19T06:50:27;22.40;48.10
33943;DHT22;66763;47.856;17.462;2023-04-19T06:52:53;22.50;48.00
33943;DHT22;66763;47.856;17.462;2023-04-19T06:55:18;22.50;48.00
33943;DHT22;66763;47.856;17.462;2023-04-19T06:57:44;22.60;48.00
33943;DHT22;66763;47.856;17.462;2023-04-19T07:00:09;22.60;48.10
33943;DHT22;66763;47.856;17.462;2023-04-19T07:02:35;22.60;47.90
33943;DHT22;66763;47.856;17.462;2023-04-19T07:05:01;22.70;47.80
33943;DHT22;66763;47.856;17.462;2023-04-19T07:07:26;22.70;47.80
33943;DHT22;66763;47.856;17.462;2023-04-19T07:09:52;22.70;47.80
33943;DHT22;66763;47.856;17.462;2023-04-19T07:12:17;22.70;47.60
33943;DHT22;66763;47.856;17.462;2023-04-19T07:14:43;22.80;47.60
33943;DHT22;66763;47.856;17.462;2023-04-19T07:17:08;22.70;47.50
33943;DHT22;66763;47.856;17.462;2023-04-19T07:19:34;22.70;47.40
33943;DHT22;66763;47.856;17.462;2023-04-19T07:21:59;22.80;47.50
33943;DHT22;66763;47.856;17.462;2023-04-19T07:24:25;22.70;47.30
33943;DHT22;66763;47.856;17.462;2023-04-19T07:26:53;22.80;47.40
33943;DHT22;66763;47.856;17.462;2023-04-19T07:29:19;22.70;47.30
33943;DHT22;66763;47.856;17.462;2023-04-19T07:31:44;22.70;47.30
33943;DHT22;66763;47.856;17.462;2023-04-19T07:34:10;22.70;47.30
33943;DHT22;66763;47.856;17.462;2023-04-19T07:36:35;22.70;47.50
33943;DHT22;66763;47.856;17.462;2023-04-19T07:39:02;22.70;47.30
33943;DHT22;66763;47.856;17.462;2023-04-19T07:41:29;22.70;47.30
33943;DHT22;66763;47.856;17.462;2023-04-19T07:43:55;22.60;47.30
33943;DHT22;66763;47.856;17.462;2023-04-19T07:46:20;22.60;47.30
33943;DHT22;66763;47.856;17.462;2023-04-19T07:48:46;22.60;47.30
33943;DHT22;66763;47.856;17.462;2023-04-19T07:51:15;22.60;47.40
33943;DHT22;66763;47.856;17.462;2023-04-19T07:53:41;22.60;47.40
33943;DHT22;66763;47.856;17.462;2023-04-19T07:56:07;22.50;47.40
33943;DHT22;66763;47.856;17.462;2023-04-19T07:58:36;22.50;47.50
33943;DHT22;66763;47.856;17.462;2023-04-19T08:01:02;22.50;47.50
33943;DHT22;66763;47.856;17.462;2023-04-19T08:03:28;22.50;47.50
33943;DHT22;66763;47.856;17.462;2023-04-19T08:05:54;22.50;47.60
33943;DHT22;66763;47.856;17.462;2023-04-19T08:08:19;22.50;47.50
33943;DHT22;66763;47.856;17.462;2023-04-19T08:10:45;22.40;47.50
33943;DHT22;66763;47.856;17.462;2023-04-19T08:13:10;22.50;47.60
33943;DHT22;66763;47.856;17.462;2023-04-19T08:15:36;22.50;47.50
33943;DHT22;66763;47.856;17.462;2023-04-19T08:18:01;22.50;47.60
33943;DHT22;66763;47.856;17.462;2023-04-19T08:20:29;22.40;47.50
33943;DHT22;66763;47.856;17.462;2023-04-19T08:22:55;22.50;47.50
33943;DHT22;66763;47.856;17.462;2023-04-19T08:25:20;22.40;48.10
33943;DHT22;66763;47.856;17.462;2023-04-19T08:27:51;22.40;47.50
33943;DHT22;66763;47.856;17.462;2023-04-19T08:30:16;22.40;47.50
33943;DHT22;66763;47.856;17.462;2023-04-19T08:32:42;22.40;47.50
33943;DHT22;66763;47.856;17.462;2023-04-19T08:35:07;22.40;47.50
33943;DHT22;66763;47.856;17.462;2023-04-19T08:37:33;22.40;47.40
33943;DHT22;66763;47.856;17.462;2023-04-19T08:39:58;22.40;47.60
33943;DHT22;66763;47.856;17.462;2023-04-19T08:42:24;22.40;48.20
33943;DHT22;66763;47.856;17.462;2023-04-19T08:44:50;22.30;47.50
33943;DHT22;66763;47.856;17.462;2023-04-19T08:47:15;22.30;47.40
33943;DHT22;66763;47.856;17.462;2023-04-19T08:49:41;22.30;47.50
33943;DHT22;66763;47.856;17.462;2023-04-19T08:52:07;22.30;47.50
33943;DHT22;66763;47.856;17.462;2023-04-19T08:54:34;22.30;47.50
33943;DHT22;66763;47.856;17.462;2023-04-19T08:57:00;22.20;47.50
33943;DHT22;66763;47.856;17.462;2023-04-19T08:59:26;22.30;47.60
33943;DHT22;66763;47.856;17.462;2023-04-19T09:01:53;22.20;47.50
33943;DHT22;66763;47.856;17.462;2023-04-19T09:04:20;22.20;47.50
33943;DHT22;66763;47.856;17.462;2023-04-19T09:06:45;22.20;47.40
33943;DHT22;66763;47.856;17.462;2023-04-19T09:11:40;22.20;47.50
33943;DHT22;66763;47.856;17.462;2023-04-19T09:14:06;22.20;47.50
33943;DHT22;66763;47.856;17.462;2023-04-19T09:16:32;22.20;47.50
33943;DHT22;66763;47.856;17.462;2023-04-19T09:18:57;22.20;47.50
33943;DHT22;66763;47.856;17.462;2023-04-19T09:21:28;22.10;47.40
33943;DHT22;66763;47.856;17.462;2023-04-19T09:23:55;22.10;47.40
33943;DHT22;66763;47.856;17.462;2023-04-19T09:26:20;22.10;47.50
33943;DHT22;66763;47.856;17.462;2023-04-19T09:28:58;22.10;47.50
33943;DHT22;66763;47.856;17.462;2023-04-19T09:31:26;22.10;47.50
33943;DHT22;66763;47.856;17.462;2023-04-19T09:33:53;22.10;47.50
33943;DHT22;66763;47.856;17.462;2023-04-19T09:36:29;22.00;47.30
33943;DHT22;66763;47.856;17.462;2023-04-19T09:38:55;22.00;47.00
33943;DHT22;66763;47.856;17.462;2023-04-19T09:41:20;22.00;47.10
33943;DHT22;66763;47.856;17.462;2023-04-19T09:43:46;22.00;47.30
33943;DHT22;66763;47.856;17.462;2023-04-19T09:51:40;22.20;47.50
33943;DHT22;66763;47.856;17.462;2023-04-19T09:54:07;22.20;47.00
33943;DHT22;66763;47.856;17.462;2023-04-19T09:56:32;22.20;46.80
33943;DHT22;66763;47.856;17.462;2023-04-19T09:58:59;22.40;46.90
33943;DHT22;66763;47.856;17.462;2023-04-19T10:01:26;22.40;46.80
33943;DHT22;66763;47.856;17.462;2023-04-19T10:03:53;22.40;46.80
33943;DHT22;66763;47.856;17.462;2023-04-19T10:06:19;22.50;46.90
33943;DHT22;66763;47.856;17.462;2023-04-19T10:08:45;22.50;46.90
33943;DHT22;66763;47.856;17.462;2023-04-19T10:11:12;22.60;46.90
33943;DHT22;66763;47.856;17.462;2023-04-19T10:13:38;22.60;47.00
33943;DHT22;66763;47.856;17.462;2023-04-19T10:16:04;22.60;47.00
33943;DHT22;66763;47.856;17.462;2023-04-19T10:18:30;22.70;47.00
33943;DHT22;66763;47.856;17.462;2023-04-19T10:21:00;22.70;47.00
33943;DHT22;66763;47.856;17.462;2023-04-19T10:23:28;22.70;47.10
33943;DHT22;66763;47.856;17.462;2023-04-19T10:25:57;22.70;47.00
33943;DHT22;66763;47.856;17.462;2023-04-19T10:28:23;22.70;47.00
33943;DHT22;66763;47.856;17.462;2023-04-19T10:33:24;22.70;47.10
33943;DHT22;66763;47.856;17.462;2023-04-19T10:35:49;22.70;47.30
33943;DHT22;66763;47.856;17.462;2023-04-19T10:38:15;22.70;47.20
33943;DHT22;66763;47.856;17.462;2023-04-19T10:43:34;22.70;47.80
33943;DHT22;66763;47.856;17.462;2023-04-19T10:46:01;22.70;48.20
33943;DHT22;66763;47.856;17.462;2023-04-19T10:50:58;22.80;50.00
33943;DHT22;66763;47.856;17.462;2023-04-19T10:56:08;22.80;50.70
33943;DHT22;66763;47.856;17.462;2023-04-19T11:03:56;22.60;49.70
33943;DHT22;66763;47.856;17.462;2023-04-19T11:06:21;22.60;49.30
33943;DHT22;66763;47.856;17.462;2023-04-19T11:08:51;22.60;49.00
33943;DHT22;66763;47.856;17.462;2023-04-19T11:11:17;22.60;48.80
33943;DHT22;66763;47.856;17.462;2023-04-19T11:13:43;22.70;48.80
33943;DHT22;66763;47.856;17.462;2023-04-19T11:16:11;22.70;48.80
33943;DHT22;66763;47.856;17.462;2023-04-19T11:18:36;22.70;48.70
33943;DHT22;66763;47.856;17.462;2023-04-19T11:21:02;22.80;48.60
33943;DHT22;66763;47.856;17.462;2023-04-19T11:23:27;22.80;48.30
33943;DHT22;66763;47.856;17.462;2023-04-19T11:25:54;22.80;47.60
33943;DHT22;66763;47.856;17.462;2023-04-19T11:28:19;22.80;47.40
33943;DHT22;66763;47.856;17.462;2023-04-19T11:30:46;22.90;47.50
33943;DHT22;66763;47.856;17.462;2023-04-19T11:33:12;22.90;47.60
33943;DHT22;66763;47.856;17.462;2023-04-19T11:35:37;22.90;47.70
33943;DHT22;66763;47.856;17.462;2023-04-19T11:38:04;22.90;47.70
33943;DHT22;66763;47.856;17.462;2023-04-19T11:40:29;22.90;47.70
33943;DHT22;66763;47.856;17.462;2023-04-19T11:42:56;23.00;47.90
33943;DHT22;66763;47.856;17.462;2023-04-19T11:45:23;22.90;47.80
33943;DHT22;66763;47.856;17.462;2023-04-19T11:47:49;22.90;47.80
33943;DHT22;66763;47.856;17.462;2023-04-19T11:50:31;23.00;48.00
33943;DHT22;66763;47.856;17.462;2023-04-19T11:52:57;23.00;48.00
33943;DHT22;66763;47.856;17.462;2023-04-19T11:55:23;22.90;47.90
33943;DHT22;66763;47.856;17.462;2023-04-19T11:57:49;22.90;47.90
33943;DHT22;66763;47.856;17.462;2023-04-19T12:00:14;22.90;47.90
33943;DHT22;66763;47.856;17.462;2023-04-19T12:02:41;22.90;47.90
33943;DHT22;66763;47.856;17.462;2023-04-19T12:05:10;22.90;47.90
33943;DHT22;66763;47.856;17.462;2023-04-19T12:07:36;22.90;47.90
33943;DHT22;66763;47.856;17.462;2023-04-19T12:10:08;22.90;47.90
33943;DHT22;66763;47.856;17.462;2023-04-19T12:12:34;22.80;47.90
33943;DHT22;66763;47.856;17.462;2023-04-19T12:15:00;22.80;47.90
33943;DHT22;66763;47.856;17.462;2023-04-19T12:17:26;22.80;47.90
33943;DHT22;66763;47.856;17.462;2023-04-19T12:19:51;22.80;48.00
33943;DHT22;66763;47.856;17.462;2023-04-19T12:22:17;22.70;47.90
33943;DHT22;66763;47.856;17.462;2023-04-19T12:24:44;22.70;47.90
33943;DHT22;66763;47.856;17.462;2023-04-19T12:27:10;22.70;48.00
33943;DHT22;66763;47.856;17.462;2023-04-19T12:29:36;22.70;48.00
33943;DHT22;66763;47.856;17.462;2023-04-19T12:32:02;22.70;48.00
33943;DHT22;66763;47.856;17.462;2023-04-19T12:34:27;22.70;47.90
33943;DHT22;66763;47.856;17.462;2023-04-19T12:36:53;22.60;47.90
33943;DHT22;66763;47.856;17.462;2023-04-19T12:39:18;22.60;47.90
33943;DHT22;66763;47.856;17.462;2023-04-19T12:41:44;22.70;47.90
33943;DHT22;66763;47.856;17.462;2023-04-19T12:44:12;22.60;47.90
33943;DHT22;66763;47.856;17.462;2023-04-19T12:46:37;22.60;47.90
33943;DHT22;66763;47.856;17.462;2023-04-19T12:49:03;22.60;47.90
33943;DHT22;66763;47.856;17.462;2023-04-19T12:51:29;22.60;47.90
33943;DHT22;66763;47.856;17.462;2023-04-19T12:53:54;22.60;48.00
33943;DHT22;66763;47.856;17.462;2023-04-19T12:56:20;22.60;48.00
33943;DHT22;66763;47.856;17.462;2023-04-19T12:58:45;22.60;47.90
33943;DHT22;66763;47.856;17.462;2023-04-19T13:01:11;22.60;47.90
33943;DHT22;66763;47.856;17.462;2023-04-19T13:03:36;22.60;47.90
33943;DHT22;66763;47.856;17.462;2023-04-19T13:06:02;22.60;48.00
33943;DHT22;66763;47.856;17.462;2023-04-19T13:08:28;22.60;47.90
33943;DHT22;66763;47.856;17.462;2023-04-19T13:10:56;22.50;47.90
33943;DHT22;66763;47.856;17.462;2023-04-19T13:13:24;22.50;48.00
33943;DHT22;66763;47.856;17.462;2023-04-19T13:15:50;22.50;48.00
33943;DHT22;66763;47.856;17.462;2023-04-19T13:18:16;22.60;48.00
33943;DHT22;66763;47.856;17.462;2023-04-19T13:20:41;22.60;47.90
33943;DHT22;66763;47.856;17.462;2023-04-19T13:23:07;22.70;48.10
33943;DHT22;66763;47.856;17.462;2023-04-19T13:25:32;22.70;47.90
33943;DHT22;66763;47.856;17.462;2023-04-19T13:27:58;22.80;47.90
33943;DHT22;66763;47.856;17.462;2023-04-19T13:30:23;22.90;48.30
33943;DHT22;66763;47.856;17.462;2023-04-19T13:32:49;22.90;48.10
33943;DHT22;66763;47.856;17.462;2023-04-19T13:35:14;22.90;48.00
33943;DHT22;66763;47.856;17.462;2023-04-19T13:37:40;22.90;48.10
33943;DHT22;66763;47.856;17.462;2023-04-19T13:40:08;23.00;48.10
33943;DHT22;66763;47.856;17.462;2023-04-19T13:42:34;23.00;48.10
33943;DHT22;66763;47.856;17.462;2023-04-19T13:45:00;23.10;48.10
33943;DHT22;66763;47.856;17.462;2023-04-19T13:47:25;23.10;47.90
33943;DHT22;66763;47.856;17.462;2023-04-19T13:49:51;23.10;47.00
33943;DHT22;66763;47.856;17.462;2023-04-19T13:52:17;23.10;46.40
33943;DHT22;66763;47.856;17.462;2023-04-19T13:54:43;23.10;46.20
33943;DHT22;66763;47.856;17.462;2023-04-19T13:57:08;23.10;46.10
33943;DHT22;66763;47.856;17.462;2023-04-19T13:59:34;23.10;46.50
33943;DHT22;66763;47.856;17.462;2023-04-19T14:02:01;23.20;46.50
33943;DHT22;66763;47.856;17.462;2023-04-19T14:04:27;23.20;46.20
33943;DHT22;66763;47.856;17.462;2023-04-19T14:06:52;23.20;46.10
33943;DHT22;66763;47.856;17.462;2023-04-19T14:09:18;23.30;45.80
33943;DHT22;66763;47.856;17.462;2023-04-19T14:11:43;23.30;45.80
33943;DHT22;66763;47.856;17.462;2023-04-19T14:14:09;23.30;46.00
33943;DHT22;66763;47.856;17.462;2023-04-19T14:16:34;23.30;45.90
33943;DHT22;66763;47.856;17.462;2023-04-19T14:19:00;23.30;45.90
33943;DHT22;66763;47.856;17.462;2023-04-19T14:21:26;23.40;45.60
33943;DHT22;66763;47.856;17.462;2023-04-19T14:23:52;23.40;45.10
33943;DHT22;66763;47.856;17.462;2023-04-19T14:26:18;23.40;44.50
33943;DHT22;66763;47.856;17.462;2023-04-19T14:28:43;23.40;44.30
33943;DHT22;66763;47.856;17.462;2023-04-19T14:31:09;23.40;44.30
33943;DHT22;66763;47.856;17.462;2023-04-19T14:33:34;23.40;44.20
33943;DHT22;66763;47.856;17.462;2023-04-19T14:36:00;23.40;44.20
33943;DHT22;66763;47.856;17.462;2023-04-19T14:38:25;23.40;44.30
33943;DHT22;66763;47.856;17.462;2023-04-19T14:40:51;23.40;44.00
33943;DHT22;66763;47.856;17.462;2023-04-19T14:43:16;23.40;44.10
33943;DHT22;66763;47.856;17.462;2023-04-19T14:45:42;23.40;44.00
33943;DHT22;66763;47.856;17.462;2023-04-19T14:48:07;23.40;43.60
33943;DHT22;66763;47.856;17.462;2023-04-19T14:50:33;23.40;43.60
33943;DHT22;66763;47.856;17.462;2023-04-19T14:52:58;23.30;42.70
33943;DHT22;66763;47.856;17.462;2023-04-19T14:55:24;23.30;42.60
33943;DHT22;66763;47.856;17.462;2023-04-19T14:57:52;23.40;42.90
33943;DHT22;66763;47.856;17.462;2023-04-19T15:00:17;23.40;43.70
33943;DHT22;66763;47.856;17.462;2023-04-19T15:02:43;23.50;44.10
33943;DHT22;66763;47.856;17.462;2023-04-19T15:05:08;23.50;44.30
33943;DHT22;66763;47.856;17.462;2023-04-19T15:07:34;23.50;44.40
33943;DHT22;66763;47.856;17.462;2023-04-19T15:09:59;23.50;44.60
33943;DHT22;66763;47.856;17.462;2023-04-19T15:12:25;23.50;44.70
33943;DHT22;66763;47.856;17.462;2023-04-19T15:14:50;23.50;44.80
33943;DHT22;66763;47.856;17.462;2023-04-19T15:17:16;23.50;45.10
33943;DHT22;66763;47.856;17.462;2023-04-19T15:19:41;23.50;45.20
33943;DHT22;66763;47.856;17.462;2023-04-19T15:22:08;23.50;45.20
33943;DHT22;66763;47.856;17.462;2023-04-19T15:24:34;23.50;45.30
33943;DHT22;66763;47.856;17.462;2023-04-19T15:27:00;23.50;45.30
33943;DHT22;66763;47.856;17.462;2023-04-19T15:29:25;23.50;45.40
33943;DHT22;66763;47.856;17.462;2023-04-19T15:31:51;23.50;45.50